Time;durP1;ratioP1;P1;durP2;ratioP2;P2;SDS_P1;SDS_P2;PMS_P1;PMS_P2;Temp;Humidity;BMP_temperature;BMP_pressure;BME280_temperature;BME280_humidity;BME280_pressure;Samples;Min_cycle;Max_cycle;Signal;HPM_P1;HPM_P2
2021/08/23 10:54:46;;;;;;;7.33;3.67;;;;;;;27.91;35.14;99388.12;1834151;77;22149;-59
2021/08/23 10:57:23;;;;;;;6.08;3.50;;;;;;;27.95;34.83;99387.95;1870635;76;22291;-61
2021/08/23 11:00:18;;;;;;;8.50;4.55;;;;;;;27.95;35.26;99385.30;1869708;76;22212;-60
2021/08/23 11:02:58;;;;;;;6.55;4.12;;;;;;;28.11;35.14;99391.47;1889682;76;22175;-57
2021/08/23 11:05:37;;;;;;;5.72;3.60;;;;;;;28.28;35.32;99391.89;1870406;76;22567;-59
2021/08/23 11:08:30;;;;;;;8.70;4.10;;;;;;;28.29;34.58;99393.59;1855001;76;31725;-58
2021/08/23 11:11:14;;;;;;;8.60;4.20;;;;;;;28.31;35.03;99394.37;1854559;76;27895;-58
2021/08/23 11:13:48;;;;;;;7.30;3.67;;;;;;;28.30;35.14;99388.69;1870757;76;22101;-60
2021/08/23 11:16:45;;;;;;;5.47;3.47;;;;;;;28.19;35.26;99396.36;1870513;76;22699;-58
2021/08/23 11:19:22;;;;;;;7.78;3.72;;;;;;;28.06;34.70;99389.09;1870675;76;22136;-62
2021/08/23 11:22:00;;;;;;;6.50;3.60;;;;;;;27.95;35.37;99386.63;1870431;76;22169;-58
2021/08/23 11:24:54;;;;;;;7.33;3.75;;;;;;;27.88;35.09;99380.30;1870604;76;22733;-60
2021/08/23 11:27:28;;;;;;;5.45;3.60;;;;;;;27.88;35.30;99382.11;1870724;76;22311;-58
2021/08/23 11:30:32;;;;;;;7.78;2.87;;;;;;;27.97;35.36;99386.92;1870595;76;22144;-61
2021/08/23 11:33:37;;;;;;;5.90;3.00;;;;;;;27.75;35.46;99380.55;1889963;76;22360;-60
2021/08/23 11:36:35;;;;;;;5.70;3.45;;;;;;;27.39;36.27;99378.88;1869810;76;22322;-59
2021/08/23 11:39:12;;;;;;;4.92;2.95;;;;;;;27.10;37.09;99378.17;1890049;76;22262;-63
2021/08/23 11:42:00;;;;;;;8.33;5.47;;;;;;;26.79;37.49;99379.67;1890048;76;22057;-61
2021/08/23 11:44:54;;;;;;;7.35;3.50;;;;;;;26.47;38.20;99380.73;1889973;76;20204;-61
2021/08/23 11:47:50;;;;;;;6.17;3.65;;;;;;;26.21;38.25;99384.63;1870526;76;22100;-62
2021/08/23 11:50:25;;;;;;;8.58;3.85;;;;;;;26.11;38.33;99373.60;1870667;76;22105;-62
2021/08/23 11:53:23;;;;;;;4.58;2.87;;;;;;;26.06;38.40;99381.36;1890138;76;22104;-61
2021/08/23 11:56:15;;;;;;;7.45;3.40;;;;;;;26.01;38.77;99378.92;1889899;76;22144;-60
2021/08/23 11:58:50;;;;;;;6.00;3.40;;;;;;;26.03;39.33;99382.36;1870663;76;22121;-60
2021/08/23 12:01:24;;;;;;;6.30;2.95;;;;;;;26.06;39.26;99380.89;1870599;76;22623;-59
2021/08/23 12:03:59;;;;;;;6.42;3.30;;;;;;;26.16;38.96;99371.60;1870751;76;22633;-61
2021/08/23 12:06:35;;;;;;;6.87;2.95;;;;;;;26.13;39.02;99375.72;1870690;76;22156;-59
2021/08/23 12:09:15;;;;;;;6.15;3.05;;;;;;;26.18;39.12;99369.75;1870544;76;22578;-60
2021/08/23 12:11:48;;;;;;;5.90;2.90;;;;;;;26.44;39.17;99370.30;1870812;76;22154;-62
2021/08/23 12:14:41;;;;;;;6.55;3.33;;;;;;;26.65;38.26;99369.77;1870551;76;22120;-60
2021/08/23 12:17:18;;;;;;;7.50;3.80;;;;;;;26.72;38.52;99372.98;1870634;76;22125;-59
2021/08/23 12:20:06;;;;;;;5.78;3.42;;;;;;;26.88;38.00;99367.31;1890001;76;22176;-60
2021/08/23 12:22:41;;;;;;;6.05;2.98;;;;;;;27.04;37.44;99378.84;1870613;76;22117;-58
2021/08/23 12:25:35;;;;;;;4.97;2.95;;;;;;;27.30;37.12;99378.49;1889902;76;22562;-60
2021/08/23 12:28:16;;;;;;;4.78;2.77;;;;;;;27.38;37.07;99370.55;1870451;76;22566;-59
2021/08/23 12:30:55;;;;;;;5.70;3.08;;;;;;;27.52;36.47;99375.60;1870666;76;22140;-60
2021/08/23 12:33:57;;;;;;;4.80;2.80;;;;;;;27.56;36.14;99379.82;1889806;76;22207;-60
2021/08/23 12:36:33;;;;;;;5.85;3.00;;;;;;;27.51;36.38;99378.73;1889906;76;22254;-61
2021/08/23 12:39:08;;;;;;;6.67;3.45;;;;;;;27.40;36.24;99373.11;1870805;76;22148;-58
2021/08/23 12:41:48;;;;;;;7.30;3.40;;;;;;;27.31;36.27;99369.16;1870474;76;20101;-59
2021/08/23 12:44:23;;;;;;;5.50;3.60;;;;;;;27.06;36.49;99370.36;1870650;76;22116;-60
2021/08/23 12:46:58;;;;;;;5.20;3.20;;;;;;;26.75;37.27;99368.86;1854678;76;27878;-59
2021/08/23 12:49:33;;;;;;;4.65;3.02;;;;;;;26.78;37.28;99360.75;1870663;76;22161;-60
2021/08/23 12:52:09;;;;;;;4.83;2.95;;;;;;;26.92;37.19;99356.97;1870460;76;22140;-59
2021/08/23 12:55:06;;;;;;;9.63;3.30;;;;;;;27.39;37.01;99359.00;1870616;76;22113;-59
2021/08/23 12:57:41;;;;;;;6.10;2.98;;;;;;;27.92;36.03;99360.64;1870655;76;22141;-57
2021/08/23 13:00:16;;;;;;;9.38;3.47;;;;;;;28.21;35.33;99354.20;1870656;76;22165;-61
2021/08/23 13:02:51;;;;;;;6.42;3.12;;;;;;;28.06;35.29;99359.02;1854676;76;27924;-59
2021/08/23 13:05:52;;;;;;;6.03;3.10;;;;;;;27.95;35.44;99361.42;1889828;76;22195;-57
2021/08/23 13:08:28;;;;;;;6.85;3.58;;;;;;;28.11;35.22;99361.84;1854597;76;27896;-58
2021/08/23 13:11:05;;;;;;;7.35;3.10;;;;;;;28.46;34.80;99363.49;1870636;76;22051;-62
2021/08/23 13:13:40;;;;;;;6.37;3.37;;;;;;;28.67;34.49;99370.70;1870625;76;22560;-59
2021/08/23 13:16:17;;;;;;;5.22;3.00;;;;;;;28.62;34.88;99364.32;1889899;76;22135;-60
2021/08/23 13:19:11;;;;;;;5.45;3.02;;;;;;;28.41;34.46;99362.86;1870571;76;22091;-58
2021/08/23 13:21:46;;;;;;;5.95;3.35;;;;;;;28.32;34.69;99361.11;1870634;76;22075;-62
2021/08/23 13:24:21;;;;;;;6.15;3.17;;;;;;;28.35;34.85;99360.09;1870649;76;22098;-60
2021/08/23 13:26:55;;;;;;;6.75;2.90;;;;;;;28.24;35.25;99362.02;1870634;76;22066;-58
2021/08/23 13:29:30;;;;;;;5.20;3.05;;;;;;;28.17;35.42;99360.64;1870648;76;22151;-59
2021/08/23 13:32:07;;;;;;;6.65;3.20;;;;;;;28.30;35.57;99360.34;1835132;77;22201;-62
2021/08/23 13:34:43;;;;;;;7.50;3.30;;;;;;;28.44;35.24;99359.58;1870469;76;22165;-60
2021/08/23 13:37:17;;;;;;;6.15;3.45;;;;;;;28.22;35.52;99359.91;1870696;76;22161;-61
2021/08/23 13:39:52;;;;;;;5.87;3.12;;;;;;;27.99;35.72;99359.00;1890059;76;22159;-59
2021/08/23 13:42:29;;;;;;;5.53;3.20;;;;;;;27.65;35.96;99356.78;1890187;76;22149;-59
2021/08/23 13:45:10;;;;;;;4.28;2.92;;;;;;;27.29;36.14;99348.49;1869823;76;22327;-60
2021/08/23 13:47:45;;;;;;;5.22;3.02;;;;;;;26.97;36.75;99359.36;1870639;76;22074;-64
2021/08/23 13:50:20;;;;;;;5.78;3.10;;;;;;;26.75;37.05;99356.47;1889980;76;22549;-58
2021/08/23 13:52:55;;;;;;;5.70;3.35;;;;;;;26.65;37.19;99359.64;1870628;76;22132;-59
2021/08/23 13:55:49;;;;;;;4.75;3.17;;;;;;;26.55;37.46;99359.23;1870620;76;22116;-59
2021/08/23 13:58:24;;;;;;;5.50;3.27;;;;;;;26.53;37.71;99357.97;1854600;76;27914;-58
2021/08/23 14:01:01;;;;;;;8.90;3.40;;;;;;;26.61;37.90;99351.86;1854793;76;28341;-60
2021/08/23 14:04:01;;;;;;;5.70;3.58;;;;;;;26.70;37.65;99358.95;1869751;76;22218;-60
2021/08/23 14:06:36;;;;;;;7.65;2.90;;;;;;;26.66;37.66;99357.38;1870663;76;22194;-59
2021/08/23 14:09:12;;;;;;;7.10;3.42;;;;;;;26.66;37.60;99353.41;1873877;76;28335;-57
2021/08/23 14:11:46;;;;;;;5.58;3.12;;;;;;;26.73;37.60;99349.53;1889956;76;22225;-62
2021/08/23 14:14:21;;;;;;;5.15;3.10;;;;;;;26.77;37.16;99339.19;1890087;76;22536;-62
2021/08/23 14:17:15;;;;;;;8.40;3.33;;;;;;;26.74;36.84;99337.55;1870665;76;22555;-61
2021/08/23 14:19:56;;;;;;;4.85;2.85;;;;;;;26.68;37.19;99339.63;1869913;76;22132;-62
2021/08/23 14:22:35;;;;;;;6.95;3.33;;;;;;;26.58;37.82;99336.58;1889932;76;22547;-59
2021/08/23 14:25:12;;;;;;;5.90;3.08;;;;;;;26.41;38.49;99344.00;1870634;76;22144;-57
2021/08/23 14:28:06;;;;;;;6.65;3.25;;;;;;;26.33;38.72;99342.16;1873818;76;27900;-60
2021/08/23 14:30:42;;;;;;;7.70;3.62;;;;;;;26.25;39.00;99341.67;1870708;76;22164;-60
2021/08/23 14:33:36;;;;;;;6.03;3.05;;;;;;;26.15;39.47;99335.48;1870509;76;22176;-61
2021/08/23 14:36:29;;;;;;;4.80;3.10;;;;;;;26.11;39.09;99337.89;1850740;77;22132;-60
2021/08/23 14:39:05;;;;;;;8.30;3.87;;;;;;;26.01;39.09;99336.61;1870662;76;22551;-59
2021/08/23 14:41:59;;;;;;;6.65;3.87;;;;;;;25.88;39.42;99338.11;1870565;76;22564;-59
2021/08/23 14:44:36;;;;;;;6.47;3.87;;;;;;;25.76;39.90;99332.40;1870524;76;22141;-58
2021/08/23 14:47:30;;;;;;;7.80;3.55;;;;;;;25.62;39.67;99337.47;1870558;76;22619;-59
2021/08/23 14:50:07;;;;;;;6.25;3.85;;;;;;;25.44;40.00;99334.30;1870734;76;22101;-60
2021/08/23 14:53:00;;;;;;;7.17;4.10;;;;;;;25.28;40.33;99335.44;1873843;76;27889;-62
2021/08/23 14:55:36;;;;;;;7.42;3.72;;;;;;;25.21;40.49;99326.91;1870625;76;22140;-59
2021/08/23 14:58:11;;;;;;;5.72;3.27;;;;;;;25.09;40.68;99328.28;1870559;76;22177;-60
2021/08/23 15:01:10;;;;;;;9.30;3.22;;;;;;;25.00;41.00;99326.02;1889986;76;22175;-59
2021/08/23 15:03:44;;;;;;;5.85;4.10;;;;;;;24.94;41.08;99326.77;1889937;76;22140;-58
2021/08/23 15:06:19;;;;;;;7.75;3.52;;;;;;;24.87;41.64;99324.36;1870556;76;22156;-59
2021/08/23 15:08:55;;;;;;;7.03;3.20;;;;;;;24.83;42.08;99322.80;1890001;76;22136;-59
2021/08/23 15:11:49;;;;;;;4.95;3.22;;;;;;;24.76;42.48;99329.24;1870642;76;22121;-60
2021/08/23 15:14:24;;;;;;;6.65;3.22;;;;;;;24.67;42.68;99326.50;1870598;76;22206;-62
2021/08/23 15:16:59;;;;;;;6.12;3.40;;;;;;;24.64;42.75;99326.63;1854738;76;27902;-60
2021/08/23 15:19:53;;;;;;;6.85;2.77;;;;;;;24.69;42.88;99327.30;1870591;76;22121;-59
2021/08/23 15:22:27;;;;;;;5.33;3.10;;;;;;;24.71;42.96;99316.70;1889957;76;22132;-59
2021/08/23 15:25:05;;;;;;;5.17;2.90;;;;;;;24.77;42.80;99313.79;1889924;76;22104;-59
2021/08/23 15:27:59;;;;;;;4.92;2.80;;;;;;;24.81;42.46;99314.07;1870550;76;22165;-61
2021/08/23 15:30:35;;;;;;;5.50;2.90;;;;;;;24.81;42.73;99308.80;1889883;76;22205;-61
2021/08/23 15:33:13;;;;;;;5.60;3.58;;;;;;;24.84;42.85;99301.20;1870608;76;20097;-61
2021/08/23 15:35:49;;;;;;;5.67;3.02;;;;;;;24.80;42.98;99300.92;1870417;76;22167;-59
2021/08/23 15:38:43;;;;;;;5.28;2.90;;;;;;;24.77;43.22;99296.63;1889989;76;22116;-58
2021/08/23 15:41:26;;;;;;;4.37;2.80;;;;;;;24.73;42.93;99297.70;1889894;76;22195;-60
2021/08/23 15:44:04;;;;;;;5.47;2.67;;;;;;;24.67;42.90;99295.30;1870459;76;22176;-60
2021/08/23 15:46:57;;;;;;;4.22;2.80;;;;;;;24.59;43.03;99292.98;1870600;76;22117;-63
